»·PEaware :: N64TZ KSNA-KCRQ

N64TZ :: KSNA-KCRQ

FLIGHT INFORMATION

Flight Status: Arrived
Operator: Privately registered:
United States
More flights under this callsign
Pilot: Marc G. (29709)
Aircraft: PIPER PA-28 CHEROKEE ARCHER
(PA28)
More flights by this aircraft type
Origin: KSNA John Wayne-Orange Co
United States
Destination: KCRQ McClellan-Palomar
United States
More flights between these airports :: More routes between these airports
Route: +V23 OCN
File this flight plan on PilotEdge
Remarks:
Altitude:
(Current/Filed)
5,000ft
Speed:
(Current/Filed)
115kts
Departed: 14-Aug-20 11:46 AM
Arrived: 14-Aug-20 12:26 PM
Distance/Time
Traveled:
44nm/0:40
Distance/Time
To Go:
Arrived

Flight Plot

Page will automatically refresh every two minutes.


Map Options




Map Legend


Flown Route
Filed Route
Departure Airport
Arrival Airport
Navaid (VOR, NDB)
Fix

Horizontal Profiles

Position Reports

Time Latitude Longitude Heading Altitude Ground
Speed
14-Aug-20 11:19 33.675439 -117.871050 24 61ft 0kts
14-Aug-20 11:20 33.675439 -117.871050 24 61ft 0kts
14-Aug-20 11:21 33.675439 -117.871050 24 61ft 0kts
14-Aug-20 11:22 33.675439 -117.871050 24 61ft 0kts
14-Aug-20 11:23 33.675439 -117.871050 24 61ft 0kts
14-Aug-20 11:24 33.675439 -117.871050 24 61ft 0kts
14-Aug-20 11:25 33.675439 -117.871050 24 61ft 0kts
14-Aug-20 11:26 33.675439 -117.871050 24 61ft 0kts
14-Aug-20 11:27 33.675439 -117.871050 24 61ft 0kts
14-Aug-20 11:28 33.675439 -117.871050 24 61ft 0kts
14-Aug-20 11:29 33.675439 -117.871050 24 61ft 0kts
14-Aug-20 11:30 33.675439 -117.871050 24 61ft 0kts
14-Aug-20 11:31 33.675439 -117.871050 24 61ft 0kts
14-Aug-20 11:32 33.675439 -117.871050 24 61ft 0kts
14-Aug-20 11:33 33.675439 -117.871050 24 61ft 0kts
14-Aug-20 11:34 33.675439 -117.871050 24 61ft 0kts
14-Aug-20 11:35 33.675439 -117.871050 24 61ft 0kts
14-Aug-20 11:36 33.675439 -117.871050 24 61ft 0kts
14-Aug-20 11:37 33.675439 -117.871050 24 61ft 0kts
14-Aug-20 11:38 33.675439 -117.871050 24 61ft 0kts
14-Aug-20 11:39 33.675439 -117.871050 24 61ft 0kts
14-Aug-20 11:40 33.675439 -117.871050 24 61ft 0kts
14-Aug-20 11:41 33.676176 -117.870020 28 61ft 16kts
14-Aug-20 11:42 33.679942 -117.867824 25 61ft 12kts
14-Aug-20 11:43 33.681197 -117.866389 112 61ft 0kts
14-Aug-20 11:44 33.681197 -117.866389 112 61ft 0kts
14-Aug-20 11:45 33.675111 -117.869217 207 90ft 87kts
14-Aug-20 11:46 33.651625 -117.880103 187 857ft 98kts
14-Aug-20 11:47 33.622233 -117.883567 184 1264ft 119kts
14-Aug-20 11:48 33.594556 -117.885774 185 2154ft 96kts
14-Aug-20 11:49 33.567281 -117.888329 186 2824ft 99kts
14-Aug-20 11:50 33.540408 -117.891462 184 3507ft 98kts
14-Aug-20 11:51 33.523653 -117.870774 96 4014ft 110kts
14-Aug-20 11:52 33.521324 -117.833006 101 4449ft 117kts
14-Aug-20 11:53 33.519556 -117.794497 102 4920ft 116kts
14-Aug-20 11:54 33.512851 -117.753590 116 4943ft 128kts
14-Aug-20 11:55 33.492391 -117.720515 129 5046ft 126kts
14-Aug-20 11:56 33.470202 -117.686484 135 4834ft 131kts
14-Aug-20 11:57 33.447753 -117.658409 137 4911ft 111kts
14-Aug-20 11:58 33.426630 -117.630930 139 4966ft 113kts
14-Aug-20 11:59 33.406848 -117.601642 139 5028ft 113kts
14-Aug-20 12:00 33.384522 -117.575794 146 5076ft 110kts
14-Aug-20 12:01 33.361719 -117.550716 132 5061ft 112kts
14-Aug-20 12:02 33.339740 -117.524372 148 5017ft 112kts
14-Aug-20 12:03 33.315583 -117.500535 148 4976ft 112kts
14-Aug-20 12:04 33.295234 -117.472172 120 4923ft 118kts
14-Aug-20 12:05 33.271945 -117.446148 144 4823ft 125kts
14-Aug-20 12:06 33.244418 -117.424778 141 4908ft 129kts
14-Aug-20 12:07 33.241521 -117.383802 75 4846ft 145kts
14-Aug-20 12:08 33.244959 -117.339747 97 5067ft 129kts
14-Aug-20 12:09 33.243817 -117.297482 99 5082ft 127kts
14-Aug-20 12:11 33.234737 -117.257712 132 4845ft 122kts
14-Aug-20 12:12 33.225103 -117.219913 100 4895ft 121kts
14-Aug-20 12:13 33.217890 -117.181236 107 5136ft 109kts
14-Aug-20 12:14 33.208512 -117.138285 110 3994ft 133kts
14-Aug-20 12:15 33.201486 -117.099204 103 4049ft 112kts
14-Aug-20 12:16 33.195199 -117.062864 101 4008ft 110kts
14-Aug-20 12:17 33.187893 -117.027210 133 3919ft 108kts
14-Aug-20 12:18 33.169532 -117.042654 241 3784ft 96kts
14-Aug-20 12:19 33.161053 -117.072165 259 3717ft 96kts
14-Aug-20 12:20 33.157445 -117.104029 259 3298ft 103kts
14-Aug-20 12:21 33.151202 -117.136070 253 2703ft 95kts
14-Aug-20 12:22 33.145816 -117.167992 268 2216ft 99kts
14-Aug-20 12:23 33.140666 -117.199265 256 1768ft 100kts
14-Aug-20 12:24 33.135963 -117.232293 255 947ft 118kts
14-Aug-20 12:25 33.129953 -117.269218 263 448ft 89kts
14-Aug-20 12:26 33.128949 -117.280152 305 336ft 2kts

Navigation Log

Ident Type
Flight plan parsing failed, navigation log unavailable